»·PEaware :: N5268J KSBA-KBUR

N5268J :: KSBA-KBUR

FLIGHT INFORMATION

Flight Status: Arrived
Operator: Privately registered:
United States
More flights under this callsign
Pilot: John P. (31881)
Aircraft: BEECH AIRCRAFT BONANZA
(BE36)
More flights by this aircraft type
Origin: KSBA Santa Barbara Mun
United States
Destination: KBUR Bob Hope-Burbank
United States
More flights between these airports :: More routes between these airports
Route: +SBA BUR
File this flight plan on PilotEdge
Remarks:
Altitude:
(Current/Filed)
5,500ft
Speed:
(Current/Filed)
167kts
Departed: 20-Oct-20 05:17 PM
Arrived: 20-Oct-20 05:54 PM
Distance/Time
Traveled:
75nm/0:37
Distance/Time
To Go:
Arrived

Flight Plot

Page will automatically refresh every two minutes.

Flight plan parsing failed; only flown route is shown


Map Options




Map Legend


Flown Route
Filed Route
Departure Airport
Arrival Airport
Navaid (VOR, NDB)
Fix

Horizontal Profiles

Position Reports

Time Latitude Longitude Heading Altitude Ground
Speed
20-Oct-20 17:00 34.431500 -119.839670 245 11ft 0kts
20-Oct-20 17:01 34.431500 -119.839670 245 11ft 0kts
20-Oct-20 17:02 34.431500 -119.839670 245 11ft 0kts
20-Oct-20 17:03 34.431500 -119.839670 245 11ft 0kts
20-Oct-20 17:04 34.431500 -119.839670 245 11ft 0kts
20-Oct-20 17:05 34.431500 -119.839670 245 11ft 0kts
20-Oct-20 17:06 34.431500 -119.839670 245 11ft 0kts
20-Oct-20 17:07 34.431500 -119.839670 245 11ft 0kts
20-Oct-20 17:08 34.431500 -119.839670 245 11ft 0kts
20-Oct-20 17:09 34.431500 -119.839670 245 11ft 0kts
20-Oct-20 17:10 34.431500 -119.839670 245 11ft 0kts
20-Oct-20 17:11 34.431500 -119.839670 245 11ft 0kts
20-Oct-20 17:12 34.429381 -119.839170 178 11ft 20kts
20-Oct-20 17:13 34.428702 -119.835227 183 12ft 0kts
20-Oct-20 17:14 34.428702 -119.835227 183 12ft 0kts
20-Oct-20 17:15 34.427859 -119.836257 267 11ft 15kts
20-Oct-20 17:16 34.427001 -119.863484 266 807ft 86kts
20-Oct-20 17:17 34.424971 -119.900042 267 1459ft 143kts
20-Oct-20 17:18 34.426505 -119.948911 330 2397ft 102kts
20-Oct-20 17:19 34.437498 -119.925093 92 3417ft 101kts
20-Oct-20 17:20 34.433817 -119.893430 97 4555ft 91kts
20-Oct-20 17:21 34.428725 -119.860041 97 5302ft 117kts
20-Oct-20 17:22 34.422071 -119.814495 97 5540ft 154kts
20-Oct-20 17:23 34.414373 -119.761649 97 5544ft 161kts
20-Oct-20 17:24 34.408392 -119.720635 95 6754ft 113kts
20-Oct-20 17:25 34.402691 -119.682090 95 7397ft 121kts
20-Oct-20 17:26 34.395932 -119.636244 96 7535ft 153kts
20-Oct-20 17:27 34.388142 -119.583433 96 7538ft 162kts
20-Oct-20 17:28 34.380142 -119.529436 96 7537ft 163kts
20-Oct-20 17:29 34.372082 -119.475194 96 7535ft 163kts
20-Oct-20 17:30 34.363999 -119.420947 97 7528ft 164kts
20-Oct-20 17:31 34.356020 -119.367670 97 7528ft 161kts
20-Oct-20 17:32 34.347891 -119.313535 97 7546ft 166kts
20-Oct-20 17:33 34.339663 -119.258816 97 7544ft 167kts
20-Oct-20 17:34 34.331260 -119.203192 98 7529ft 167kts
20-Oct-20 17:35 34.322935 -119.148217 98 7539ft 166kts
20-Oct-20 17:36 34.314880 -119.095199 98 7541ft 165kts
20-Oct-20 17:37 34.306562 -119.040681 98 7533ft 154kts
20-Oct-20 17:38 34.299007 -118.991112 99 6924ft 177kts
20-Oct-20 17:39 34.290020 -118.932627 99 5884ft 169kts
20-Oct-20 17:40 34.281665 -118.878213 99 5548ft 167kts
20-Oct-20 17:41 34.272932 -118.821739 98 5238ft 173kts
20-Oct-20 17:42 34.264167 -118.765057 99 4639ft 171kts
20-Oct-20 17:43 34.255601 -118.709951 98 3934ft 151kts
20-Oct-20 17:44 34.247551 -118.658248 99 3553ft 169kts
20-Oct-20 17:45 34.239033 -118.603606 99 3542ft 165kts
20-Oct-20 17:46 34.230518 -118.549398 99 3542ft 165kts
20-Oct-20 17:47 34.222023 -118.495307 99 3534ft 155kts
20-Oct-20 17:48 34.227937 -118.452892 13 3553ft 143kts
20-Oct-20 17:49 34.245949 -118.486668 238 3535ft 141kts
20-Oct-20 17:50 34.219987 -118.469803 109 3557ft 142kts
20-Oct-20 17:51 34.201240 -118.423029 110 2437ft 144kts
20-Oct-20 17:52 34.198138 -118.383271 90 1193ft 108kts
20-Oct-20 17:53 34.198358 -118.360304 6 716ft 11kts
20-Oct-20 17:54 34.199662 -118.359494 88 717ft 0kts
20-Oct-20 17:55 34.199662 -118.359494 88 717ft 0kts
20-Oct-20 17:56 34.199662 -118.359494 88 717ft 0kts
20-Oct-20 17:57 34.199662 -118.359494 88 717ft 0kts
20-Oct-20 17:58 34.199662 -118.359494 88 717ft 0kts
20-Oct-20 17:59 34.199662 -118.359494 88 717ft 0kts
20-Oct-20 18:00 34.199662 -118.359494 88 717ft 0kts
20-Oct-20 18:02 34.199662 -118.359494 88 717ft 0kts
20-Oct-20 18:03 34.199662 -118.359494 88 717ft 0kts
20-Oct-20 18:04 34.199662 -118.359494 88 717ft 0kts
20-Oct-20 18:05 34.199662 -118.359494 88 717ft 0kts
20-Oct-20 18:06 34.199662 -118.359494 88 717ft 0kts
20-Oct-20 18:07 34.199662 -118.359494 88 717ft 0kts
20-Oct-20 18:08 34.199662 -118.359494 88 717ft 0kts

Navigation Log

Ident Type
Flight plan parsing failed, navigation log unavailable